Time;durP1;ratioP1;P1;durP2;ratioP2;P2;SDS_P1;SDS_P2;PMS_P1;PMS_P2;Temp;Humidity;BMP_temperature;BMP_pressure;BME280_temperature;BME280_humidity;BME280_pressure;Samples;Min_cycle;Max_cycle;Signal;HPM_P1;HPM_P2
2022/05/06 00:00:10;;;;;;;19.38;14.95;;;12.50;92.10;;;;;;4975277;28;92741;-71
2022/05/06 00:02:37;;;;;;;;;;;12.50;92.00;;;;;;4975960;28;92536;-72
2022/05/06 00:05:06;;;;;;;20.60;14.60;;;12.40;92.20;;;;;;4977207;28;92457;-72
2022/05/06 00:07:33;;;;;;;23.48;15.52;;;12.30;92.20;;;;;;4975366;28;93304;-72
2022/05/06 00:10:03;;;;;;;25.05;15.52;;;12.30;92.30;;;;;;4974014;28;93081;-71
2022/05/06 00:12:33;;;;;;;23.52;14.95;;;12.30;92.20;;;;;;4975725;28;91595;-72
2022/05/06 00:15:01;;;;;;;24.38;16.73;;;12.30;92.40;;;;;;4974090;28;92531;-71
2022/05/06 00:17:27;;;;;;;20.45;15.32;;;12.30;92.40;;;;;;4973836;28;94397;-71
2022/05/06 00:19:55;;;;;;;23.25;16.23;;;12.30;92.40;;;;;;4972832;28;94845;-71
2022/05/06 00:22:22;;;;;;;22.42;15.73;;;12.20;92.50;;;;;;4974877;28;92556;-71
2022/05/06 00:24:51;;;;;;;22.42;16.38;;;12.20;92.50;;;;;;4973963;28;94091;-71
2022/05/06 00:27:19;;;;;;;23.73;15.32;;;12.20;92.60;;;;;;4974833;28;93743;-72
2022/05/06 00:29:45;;;;;;;22.90;16.83;;;12.20;92.70;;;;;;4957366;28;95713;-72
2022/05/06 00:32:13;;;;;;;26.48;16.55;;;12.10;92.70;;;;;;4973808;28;92579;-71
2022/05/06 00:34:40;;;;;;;23.27;16.00;;;12.10;92.90;;;;;;4973699;28;92563;-71
2022/05/06 00:37:07;;;;;;;21.10;15.55;;;12.10;93.10;;;;;;4975258;28;92466;-71
2022/05/06 00:39:34;;;;;;;25.20;17.35;;;12.00;93.00;;;;;;4973483;28;92478;-71
2022/05/06 00:42:01;;;;;;;24.58;16.52;;;12.00;93.10;;;;;;4973338;28;92495;-71
2022/05/06 00:45:02;;;;;;;22.55;16.52;;;11.90;93.40;;;;;;4972354;28;94968;-71
2022/05/06 00:47:40;;;;;;;23.52;15.07;;;12.00;93.50;;;;;;4975185;28;94572;-71
2022/05/06 00:50:09;;;;;;;25.65;16.42;;;11.80;93.50;;;;;;4960424;28;95648;-71
2022/05/06 00:52:36;;;;;;;25.88;15.80;;;11.80;93.40;;;;;;4977127;28;92534;-71
2022/05/06 00:55:04;;;;;;;26.20;16.15;;;11.80;93.40;;;;;;4976976;28;92684;-71
2022/05/06 00:57:31;;;;;;;21.73;16.33;;;11.80;93.60;;;;;;4978128;28;93095;-71
2022/05/06 01:00:19;;;;;;;25.70;16.92;;;11.80;93.70;;;;;;4960755;28;95546;-71
2022/05/06 01:02:47;;;;;;;23.15;16.23;;;11.80;93.50;;;;;;4978854;28;91666;-71
2022/05/06 01:05:15;;;;;;;23.27;16.83;;;11.70;93.50;;;;;;4976603;28;92591;-71
2022/05/06 01:07:45;;;;;;;23.58;16.00;;;11.70;93.50;;;;;;4976521;28;96082;-71
2022/05/06 01:10:13;;;;;;;22.67;15.07;;;11.70;93.50;;;;;;4958663;28;95094;-71
2022/05/06 01:12:40;;;;;;;24.23;16.58;;;11.60;93.30;;;;;;4976444;28;92476;-71
2022/05/06 01:15:22;;;;;;;24.40;16.25;;;11.60;93.40;;;;;;4976466;28;92469;-71
2022/05/06 01:18:04;;;;;;;24.58;15.65;;;11.60;93.60;;;;;;4976576;28;95693;-71
2022/05/06 01:20:37;;;;;;;21.65;15.32;;;11.50;93.50;;;;;;4977643;28;93561;-71
2022/05/06 01:23:05;;;;;;;21.40;15.47;;;11.50;93.30;;;;;;4977820;28;92687;-71
2022/05/06 01:25:31;;;;;;;23.17;16.02;;;11.50;93.20;;;;;;4977782;28;92363;-71
2022/05/06 01:28:10;;;;;;;22.40;15.57;;;11.50;93.60;;;;;;4977980;28;92534;-71
2022/05/06 01:30:45;;;;;;;19.50;14.88;;;11.50;93.70;;;;;;4976140;28;95080;-71
2022/05/06 01:33:21;;;;;;;19.85;14.68;;;11.40;93.60;;;;;;4976219;28;92595;-71
2022/05/06 01:36:01;;;;;;;25.40;16.35;;;11.40;93.50;;;;;;4975037;28;94929;-71
2022/05/06 01:38:44;;;;;;;21.65;15.30;;;11.40;93.50;;;;;;4977316;28;93328;-71
2022/05/06 01:41:24;;;;;;;22.35;14.50;;;11.40;93.50;;;;;;4959859;28;95777;-71
2022/05/06 01:44:07;;;;;;;23.15;14.77;;;11.30;93.50;;;;;;4976132;28;92566;-71
2022/05/06 01:46:36;;;;;;;22.42;15.30;;;11.30;93.60;;;;;;4976057;28;92483;-71
2022/05/06 01:49:09;;;;;;;24.73;14.68;;;11.30;93.60;;;;;;4976035;28;95644;-71
2022/05/06 01:51:38;;;;;;;21.35;15.73;;;11.30;93.60;;;;;;4975792;28;95548;-71
2022/05/06 01:54:09;;;;;;;22.57;15.50;;;11.30;93.50;;;;;;4976401;28;91722;-71
2022/05/06 01:56:40;;;;;;;24.40;16.17;;;11.30;93.70;;;;;;4975942;28;92534;-71
2022/05/06 01:59:07;;;;;;;23.80;16.50;;;11.30;93.80;;;;;;4975030;28;96014;-71
2022/05/06 02:01:34;;;;;;;24.30;15.23;;;11.20;93.90;;;;;;4974364;28;94896;-71
2022/05/06 02:06:49;;;;;;;21.80;15.15;;;11.20;94.00;;;;;;4976143;28;92920;-71
2022/05/06 02:09:20;;;;;;;23.88;16.50;;;11.20;94.00;;;;;;4975830;28;94611;-71
2022/05/06 02:11:53;;;;;;;25.98;16.23;;;11.20;93.90;;;;;;4960273;28;95629;-71
2022/05/06 02:14:25;;;;;;;21.92;15.13;;;11.10;93.80;;;;;;4974772;28;92571;-71
2022/05/06 02:17:15;;;;;;;23.52;15.48;;;11.10;93.70;;;;;;4947814;28;92494;-71
2022/05/06 02:20:11;;;;;;;22.27;15.98;;;11.00;93.70;;;;;;4968725;28;92387;-71
2022/05/06 02:22:56;;;;;;;24.40;14.60;;;11.10;93.80;;;;;;4973052;28;92468;-71
2022/05/06 02:25:31;;;;;;;21.02;15.15;;;11.00;93.70;;;;;;4975465;28;92587;-71
2022/05/06 02:28:07;;;;;;;19.80;15.15;;;11.00;93.70;;;;;;4973484;28;95399;-71
2022/05/06 02:33:25;;;;;;;21.05;15.13;;;10.90;93.80;;;;;;4975220;28;95527;-71
2022/05/06 02:36:03;;;;;;;26.95;16.33;;;10.90;93.90;;;;;;4975322;28;92459;-71
2022/05/06 02:38:33;;;;;;;20.77;14.90;;;10.90;94.10;;;;;;4975224;28;92479;-71
2022/05/06 02:41:00;;;;;;;23.42;14.98;;;10.90;94.20;;;;;;4958678;28;95577;-71
2022/05/06 02:43:32;;;;;;;22.15;15.60;;;10.80;94.00;;;;;;4974959;28;95243;-71
2022/05/06 02:46:00;;;;;;;25.42;16.35;;;10.80;94.00;;;;;;4975574;28;91750;-71
2022/05/06 02:48:27;;;;;;;22.55;15.70;;;10.80;94.00;;;;;;4975085;28;92817;-71
2022/05/06 02:50:54;;;;;;;24.27;16.25;;;10.80;94.00;;;;;;4958897;28;94770;-71
2022/05/06 02:53:21;;;;;;;24.13;16.77;;;10.70;94.00;;;;;;4973342;28;100152;-71
2022/05/06 02:55:48;;;;;;;23.52;15.43;;;10.80;94.30;;;;;;4974878;28;92535;-71
2022/05/06 02:58:16;;;;;;;25.65;15.15;;;10.70;94.30;;;;;;4958575;28;92532;-71
2022/05/06 03:00:46;;;;;;;28.55;15.70;;;10.70;94.20;;;;;;4958713;28;95424;-71
2022/05/06 03:03:13;;;;;;;21.60;15.25;;;10.70;94.30;;;;;;4974146;28;96159;-70
2022/05/06 03:05:42;;;;;;;25.35;15.85;;;10.70;94.30;;;;;;4976412;28;92865;-70
2022/05/06 03:08:10;;;;;;;23.10;16.50;;;10.70;94.30;;;;;;4974273;28;92515;-70
2022/05/06 03:10:37;;;;;;;21.67;15.10;;;10.60;94.30;;;;;;4975902;28;92579;-70
2022/05/06 03:13:04;;;;;;;26.90;15.95;;;10.70;94.40;;;;;;4958212;28;95018;-70
2022/05/06 03:15:31;;;;;;;23.95;15.80;;;10.60;94.30;;;;;;4974369;28;92441;-70
2022/05/06 03:18:04;;;;;;;25.77;15.35;;;10.60;94.40;;;;;;4957380;28;94849;-70
2022/05/06 03:20:31;;;;;;;23.65;15.00;;;10.60;94.40;;;;;;4958001;28;95762;-70
2022/05/06 03:22:58;;;;;;;23.42;15.48;;;10.60;94.40;;;;;;4975579;28;93023;-70
2022/05/06 03:25:25;;;;;;;23.90;16.45;;;10.60;94.50;;;;;;4957847;28;92547;-70
2022/05/06 03:28:07;;;;;;;22.95;15.52;;;10.60;94.60;;;;;;4976107;28;92461;-70
2022/05/06 03:30:39;;;;;;;23.52;16.20;;;10.50;94.60;;;;;;4974633;28;92515;-70
2022/05/06 03:33:15;;;;;;;22.75;15.32;;;10.50;94.60;;;;;;4974239;28;95375;-70
2022/05/06 03:35:43;;;;;;;24.15;15.77;;;10.50;94.60;;;;;;4958270;28;91751;-70
2022/05/06 03:38:13;;;;;;;23.42;15.85;;;10.50;94.60;;;;;;4958242;28;92647;-70
2022/05/06 03:40:43;;;;;;;24.98;15.65;;;10.40;94.60;;;;;;4974009;28;95927;-70
2022/05/06 03:43:10;;;;;;;19.95;15.65;;;10.50;94.80;;;;;;4956499;28;95543;-70
2022/05/06 03:45:39;;;;;;;20.38;15.65;;;10.50;94.80;;;;;;4957751;28;92825;-70
2022/05/06 03:48:09;;;;;;;20.48;14.82;;;10.50;94.70;;;;;;4958023;28;92510;-70
2022/05/06 03:53:28;;;;;;;25.63;16.25;;;10.50;94.70;;;;;;4957537;28;95422;-70
2022/05/06 03:55:56;;;;;;;23.35;15.80;;;10.50;94.80;;;;;;4974227;28;92642;-70
2022/05/06 03:58:26;;;;;;;23.42;15.85;;;10.50;94.70;;;;;;4958041;28;92499;-70
2022/05/06 04:00:54;;;;;;;21.15;15.88;;;10.50;94.70;;;;;;4957983;28;94924;-70
2022/05/06 04:03:21;;;;;;;26.02;16.73;;;10.50;94.60;;;;;;4974135;28;93237;-70
2022/05/06 04:05:48;;;;;;;23.80;17.20;;;10.50;94.50;;;;;;4973870;28;92532;-70
2022/05/06 04:08:15;;;;;;;23.40;17.02;;;10.60;94.50;;;;;;4972831;28;94961;-70
2022/05/06 04:10:44;;;;;;;32.40;19.63;;;10.60;94.60;;;;;;4973568;28;96046;-70
2022/05/06 04:13:11;;;;;;;25.00;18.23;;;10.60;94.50;;;;;;4973800;28;95032;-70
2022/05/06 04:15:39;;;;;;;27.48;18.73;;;10.60;94.60;;;;;;4973830;28;92685;-70
2022/05/06 04:18:11;;;;;;;25.95;17.45;;;10.70;94.50;;;;;;4973238;28;92489;-70
2022/05/06 04:23:29;;;;;;;27.70;17.65;;;10.80;94.40;;;;;;4972903;28;95571;-70
2022/05/06 04:26:01;;;;;;;23.45;16.30;;;10.80;94.30;;;;;;4974614;28;91678;-70
2022/05/06 04:28:31;;;;;;;21.15;15.85;;;10.90;94.30;;;;;;4973854;28;92542;-70
2022/05/06 04:31:02;;;;;;;21.13;16.05;;;11.10;94.10;;;;;;4957180;28;95884;-70
2022/05/06 04:33:34;;;;;;;20.70;15.35;;;11.30;93.90;;;;;;4972340;28;95325;-70
2022/05/06 04:36:03;;;;;;;19.90;14.50;;;11.40;93.60;;;;;;4973671;28;92446;-70
2022/05/06 04:38:31;;;;;;;23.35;16.00;;;11.70;93.40;;;;;;4973982;28;92506;-70
2022/05/06 04:41:02;;;;;;;18.63;15.05;;;12.00;92.90;;;;;;4973454;28;94317;-70
2022/05/06 04:43:32;;;;;;;20.80;14.88;;;12.40;92.30;;;;;;4973610;28;95333;-70
2022/05/06 04:46:00;;;;;;;19.90;15.20;;;12.60;91.80;;;;;;4973721;28;92408;-70
2022/05/06 04:48:29;;;;;;;18.77;15.45;;;12.70;91.40;;;;;;4973591;28;92652;-71
2022/05/06 04:50:59;;;;;;;19.27;14.55;;;12.80;91.20;;;;;;4973062;28;94765;-71
2022/05/06 04:53:26;;;;;;;18.40;13.50;;;13.00;91.00;;;;;;4974984;28;93135;-71
2022/05/06 04:55:55;;;;;;;18.50;14.00;;;13.20;90.70;;;;;;4974691;28;92432;-71
2022/05/06 04:58:35;;;;;;;17.90;14.27;;;13.40;90.40;;;;;;4972294;28;94943;-71
2022/05/06 05:01:06;;;;;;;21.33;16.27;;;13.50;90.30;;;;;;4956738;28;95937;-71
2022/05/06 05:03:35;;;;;;;21.67;16.38;;;13.50;90.40;;;;;;4973389;28;95337;-71
2022/05/06 05:06:03;;;;;;;21.55;16.15;;;13.50;90.40;;;;;;4972948;28;92396;-71
2022/05/06 05:08:30;;;;;;;25.40;17.08;;;13.60;90.30;;;;;;4973425;28;92899;-71
2022/05/06 05:11:02;;;;;;;25.13;17.25;;;13.50;90.10;;;;;;4973040;28;95563;-71
2022/05/06 05:13:38;;;;;;;25.23;17.52;;;13.50;90.30;;;;;;4957794;28;95474;-71
2022/05/06 05:16:09;;;;;;;24.25;17.45;;;13.50;90.30;;;;;;4972517;28;91769;-71
2022/05/06 05:18:38;;;;;;;22.75;17.15;;;13.40;90.40;;;;;;4973283;28;92502;-71
2022/05/06 05:21:05;;;;;;;24.02;17.05;;;13.40;90.50;;;;;;4956967;28;95409;-71
2022/05/06 05:23:32;;;;;;;25.67;18.45;;;13.40;90.50;;;;;;4971452;28;94957;-71
2022/05/06 05:26:00;;;;;;;23.20;17.48;;;13.50;90.60;;;;;;4973195;28;92741;-71
2022/05/06 05:28:28;;;;;;;29.60;19.27;;;13.50;90.60;;;;;;4973127;28;92479;-71
2022/05/06 05:30:55;;;;;;;22.15;16.95;;;13.50;90.60;;;;;;4972981;28;95622;-72
2022/05/06 05:33:22;;;;;;;22.98;17.65;;;13.60;90.60;;;;;;4957809;28;95474;-71
2022/05/06 05:35:54;;;;;;;22.25;16.30;;;13.70;90.60;;;;;;4976126;28;92948;-71
2022/05/06 05:38:21;;;;;;;23.40;17.00;;;13.80;90.60;;;;;;4976436;28;93379;-72
2022/05/06 05:40:50;;;;;;;20.42;16.88;;;13.90;90.50;;;;;;4960125;28;94463;-71
2022/05/06 05:48:54;;;;;;;21.95;17.52;;;14.50;90.00;;;;;;4974777;28;94838;-71
2022/05/06 05:51:22;;;;;;;23.33;18.40;;;14.70;90.30;;;;;;4959647;28;95561;-72
2022/05/06 05:53:55;;;;;;;;;;;15.00;89.80;;;;;;4976350;28;95358;-71
2022/05/06 05:56:25;;;;;;;28.15;19.05;;;15.30;88.90;;;;;;4961641;28;92831;-72
2022/05/06 05:58:52;;;;;;;28.15;19.48;;;15.70;88.30;;;;;;4977273;28;92485;-72
2022/05/06 06:01:22;;;;;;;25.17;19.58;;;16.20;87.00;;;;;;4959362;28;95995;-72
2022/05/06 06:03:50;;;;;;;26.42;19.60;;;16.60;85.70;;;;;;4959542;28;94173;-72
2022/05/06 06:06:18;;;;;;;26.65;20.58;;;16.80;84.70;;;;;;4960217;28;92036;-72
2022/05/06 06:08:49;;;;;;;27.45;20.85;;;16.90;84.10;;;;;;4943689;28;92883;-72
2022/05/06 06:11:17;;;;;;;31.70;21.02;;;17.00;83.80;;;;;;4975691;28;95526;-72
2022/05/06 06:13:46;;;;;;;31.77;23.38;;;17.00;83.50;;;;;;4973413;28;95467;-72
2022/05/06 06:16:17;;;;;;;29.98;22.05;;;17.00;83.50;;;;;;4959503;28;92547;-72
2022/05/06 06:18:44;;;;;;;28.65;22.02;;;16.90;83.70;;;;;;4975567;28;92483;-72
2022/05/06 06:21:14;;;;;;;27.33;21.80;;;16.80;84.00;;;;;;4975713;28;95651;-72
2022/05/06 06:23:41;;;;;;;28.98;23.15;;;16.60;84.30;;;;;;4958798;28;95344;-72
2022/05/06 06:26:08;;;;;;;32.70;22.17;;;16.50;84.90;;;;;;4975092;28;92659;-72
2022/05/06 06:28:37;;;;;;;30.98;22.25;;;16.40;85.50;;;;;;4975255;28;92494;-72
2022/05/06 06:31:08;;;;;;;29.73;21.83;;;16.60;85.60;;;;;;4975442;28;94820;-72
2022/05/06 06:33:37;;;;;;;32.40;21.60;;;16.70;85.20;;;;;;4975226;28;94703;-72
2022/05/06 06:36:09;;;;;;;33.30;23.38;;;16.90;84.90;;;;;;4959532;28;92522;-72
2022/05/06 06:38:36;;;;;;;30.30;22.30;;;17.20;84.40;;;;;;4974106;28;94896;-72
2022/05/06 06:41:04;;;;;;;31.50;22.83;;;17.60;83.40;;;;;;4942424;28;94280;-72
2022/05/06 06:43:31;;;;;;;39.95;24.50;;;17.80;82.60;;;;;;4975047;28;93108;-72
2022/05/06 06:46:15;;;;;;;31.73;22.90;;;17.90;82.00;;;;;;4974423;28;92603;-72
2022/05/06 06:49:05;;;;;;;34.40;23.02;;;18.00;81.90;;;;;;4974924;28;92534;-72
2022/05/06 06:51:50;;;;;;;30.10;23.70;;;17.90;81.90;;;;;;4974580;28;92711;-72
2022/05/06 06:54:35;;;;;;;32.38;23.65;;;17.90;82.10;;;;;;4976419;28;93000;-72
2022/05/06 06:57:26;;;;;;;34.92;25.10;;;17.90;82.10;;;;;;4976721;28;91727;-72
2022/05/06 07:00:17;;;;;;;31.30;23.30;;;17.90;82.10;;;;;;4961739;28;92513;-72
2022/05/06 07:03:38;;;;;;;35.83;25.30;;;17.80;82.30;;;;;;4966348;28;92579;-72
2022/05/06 07:12:06;;;;;;;33.38;23.13;;;18.20;81.70;;;;;;4976456;28;92485;-72
2022/05/06 07:19:14;;;;;;;32.25;24.73;;;18.20;80.90;;;;;;4974673;28;93220;-72
2022/05/06 07:21:41;;;;;;;34.08;23.33;;;18.10;80.90;;;;;;4958556;28;92447;-72
2022/05/06 07:29:11;;;;;;;33.40;23.65;;;18.50;80.30;;;;;;4945613;28;91952;-72
2022/05/06 07:31:41;;;;;;;29.88;22.25;;;18.20;81.10;;;;;;4948535;28;92455;-72
2022/05/06 07:34:11;;;;;;;29.52;21.73;;;18.20;81.20;;;;;;4918054;28;92575;-72
2022/05/06 07:36:41;;;;;;;30.10;21.10;;;18.30;81.10;;;;;;4969324;28;94787;-72
2022/05/06 07:39:12;;;;;;;27.15;21.40;;;18.50;80.80;;;;;;4955087;28;92567;-72
2022/05/06 07:41:40;;;;;;;27.08;21.63;;;18.70;80.40;;;;;;4938327;28;96132;-72
2022/05/06 07:44:09;;;;;;;27.58;20.45;;;18.70;80.60;;;;;;4955654;28;92936;-72
2022/05/06 07:46:36;;;;;;;28.38;21.52;;;18.80;79.90;;;;;;4937759;28;92624;-72
2022/05/06 07:49:11;;;;;;;27.60;21.13;;;19.00;79.50;;;;;;4931455;28;95610;-72
2022/05/06 07:51:43;;;;;;;27.58;21.90;;;19.20;79.20;;;;;;4955908;28;93039;-72
2022/05/06 07:54:13;;;;;;;25.25;20.90;;;19.50;78.90;;;;;;4956108;28;91719;-72
2022/05/06 07:56:45;;;;;;;22.52;18.63;;;19.90;77.50;;;;;;4926594;28;94222;-72
2022/05/06 07:59:12;;;;;;;22.45;19.92;;;20.30;76.50;;;;;;4937536;28;100868;-72
2022/05/06 08:04:34;;;;;;;23.63;19.98;;;21.40;74.20;;;;;;4956101;28;92986;-72
2022/05/06 08:07:02;;;;;;;21.42;19.33;;;22.50;71.50;;;;;;4938339;28;92967;-72
2022/05/06 08:09:29;;;;;;;20.92;18.77;;;23.60;69.10;;;;;;4955597;28;93570;-72
2022/05/06 08:11:56;;;;;;;22.25;20.02;;;24.60;66.20;;;;;;4955184;28;93124;-73
2022/05/06 08:14:23;;;;;;;22.30;19.52;;;25.60;63.30;;;;;;4949417;28;92913;-73
2022/05/06 08:16:50;;;;;;;23.85;21.60;;;26.40;60.30;;;;;;4955317;28;92508;-72
2022/05/06 08:19:19;;;;;;;21.85;19.80;;;27.20;57.60;;;;;;4938495;28;92466;-73
2022/05/06 08:21:49;;;;;;;24.10;22.05;;;27.70;54.90;;;;;;4938818;28;92609;-73
2022/05/06 08:24:17;;;;;;;20.80;18.98;;;28.30;53.70;;;;;;4937749;28;94476;-73
2022/05/06 08:26:44;;;;;;;19.17;17.48;;;28.90;51.50;;;;;;4937152;28;94942;-73
2022/05/06 08:29:12;;;;;;;20.33;18.52;;;29.30;49.60;;;;;;4946439;28;92965;-73
2022/05/06 08:31:40;;;;;;;20.13;18.42;;;29.80;48.00;;;;;;4955624;28;93076;-73
2022/05/06 08:34:08;;;;;;;18.73;17.13;;;30.10;47.00;;;;;;4955589;28;92419;-73
2022/05/06 08:36:37;;;;;;;20.65;19.05;;;30.40;46.00;;;;;;4954102;28;92509;-73
2022/05/06 08:39:05;;;;;;;18.23;16.73;;;30.70;45.10;;;;;;4955160;28;93325;-73
2022/05/06 08:41:32;;;;;;;19.08;17.40;;;30.80;44.80;;;;;;4937908;28;93144;-73
2022/05/06 08:52:43;;;;;;;15.82;14.63;;;30.50;43.60;;;;;;4954119;28;95194;-73
2022/05/06 08:55:10;;;;;;;17.13;15.73;;;30.00;43.50;;;;;;4955318;28;92384;-73
2022/05/06 08:57:37;;;;;;;19.42;17.73;;;28.80;45.30;;;;;;4937906;28;92456;-73
2022/05/06 09:00:05;;;;;;;19.88;18.13;;;27.90;48.10;;;;;;4921316;28;93258;-72
2022/05/06 09:02:32;;;;;;;17.70;16.10;;;27.20;50.30;;;;;;4955067;28;93593;-73
2022/05/06 09:04:59;;;;;;;18.95;17.05;;;26.60;51.60;;;;;;4955015;28;92454;-72
2022/05/06 09:07:27;;;;;;;19.23;17.42;;;26.20;52.80;;;;;;4921845;28;92477;-73
2022/05/06 09:10:11;;;;;;;17.27;15.60;;;25.80;53.80;;;;;;4941274;28;95085;-72
2022/05/06 09:12:42;;;;;;;19.23;16.75;;;25.50;55.10;;;;;;4958635;28;92351;-72
2022/05/06 09:17:57;;;;;;;17.13;15.35;;;24.70;57.50;;;;;;4917666;28;94940;-72
2022/05/06 09:20:25;;;;;;;15.38;13.68;;;24.30;59.10;;;;;;4940861;28;93194;-72
2022/05/06 09:22:53;;;;;;;16.63;15.02;;;24.10;59.50;;;;;;4955367;28;93265;-72
2022/05/06 09:25:40;;;;;;;17.95;16.25;;;24.00;60.40;;;;;;4958166;28;92354;-72
2022/05/06 09:28:20;;;;;;;13.73;12.52;;;24.00;61.20;;;;;;4958283;28;92352;-72
2022/05/06 09:31:04;;;;;;;13.85;12.45;;;23.80;60.80;;;;;;4958034;28;93081;-72
2022/05/06 09:33:35;;;;;;;13.60;12.23;;;23.80;60.90;;;;;;4956850;28;92845;-72
2022/05/06 09:36:25;;;;;;;14.77;13.20;;;23.70;61.10;;;;;;4957613;28;91620;-72
2022/05/06 09:39:09;;;;;;;15.55;13.35;;;24.00;61.60;;;;;;4958166;28;92491;-72
2022/05/06 09:41:41;;;;;;;12.98;11.70;;;24.00;60.90;;;;;;4957989;28;93235;-72
2022/05/06 09:44:12;;;;;;;13.57;11.68;;;24.00;61.50;;;;;;4923223;28;95705;-72
2022/05/06 09:46:38;;;;;;;14.05;12.55;;;24.10;61.00;;;;;;4924457;28;92483;-72
2022/05/06 09:49:06;;;;;;;14.05;12.63;;;24.10;61.10;;;;;;4940436;28;92567;-72
2022/05/06 09:51:53;;;;;;;12.00;10.80;;;24.10;61.00;;;;;;4958064;28;93282;-72
2022/05/06 09:54:32;;;;;;;12.63;10.98;;;24.00;60.50;;;;;;4923793;28;95949;-72
2022/05/06 09:57:05;;;;;;;12.13;10.02;;;23.90;61.10;;;;;;4924499;28;92698;-72
2022/05/06 09:59:32;;;;;;;10.48;9.38;;;23.70;61.80;;;;;;4939826;28;92527;-72
2022/05/06 10:01:59;;;;;;;11.85;9.85;;;23.70;62.20;;;;;;4958696;28;92653;-72
2022/05/06 10:04:31;;;;;;;8.77;7.97;;;23.70;62.00;;;;;;4956730;28;94806;-72
2022/05/06 10:07:00;;;;;;;12.60;9.70;;;23.70;61.90;;;;;;4924761;28;92534;-72
2022/05/06 10:09:32;;;;;;;9.00;8.10;;;23.60;61.90;;;;;;4956671;28;94829;-72
2022/05/06 10:12:02;;;;;;;7.60;6.90;;;23.50;61.90;;;;;;4940431;28;95734;-72
2022/05/06 10:14:31;;;;;;;6.53;5.93;;;23.40;61.80;;;;;;4956729;28;93061;-71
2022/05/06 10:16:58;;;;;;;7.45;6.82;;;23.30;61.20;;;;;;4958252;28;92445;-71
2022/05/06 10:19:38;;;;;;;8.25;7.55;;;23.20;61.60;;;;;;4955942;28;92445;-72
2022/05/06 10:22:05;;;;;;;9.18;8.38;;;23.10;62.60;;;;;;4939986;28;95110;-71
2022/05/06 10:24:41;;;;;;;9.40;8.50;;;23.10;63.00;;;;;;4957729;28;92483;-71
2022/05/06 10:27:23;;;;;;;6.75;6.15;;;23.10;63.90;;;;;;4941107;28;91876;-71
2022/05/06 10:32:54;;;;;;;6.15;5.55;;;22.90;63.60;;;;;;4926643;28;95888;-71
2022/05/06 10:35:43;;;;;;;6.30;5.70;;;22.80;63.80;;;;;;4956654;28;94909;-72
2022/05/06 10:38:24;;;;;;;4.43;4.03;;;22.90;63.60;;;;;;4940328;28;92573;-72
2022/05/06 10:41:01;;;;;;;4.57;4.13;;;22.90;63.20;;;;;;4957925;28;92428;-72
2022/05/06 10:43:44;;;;;;;;;;;23.00;61.90;;;;;;4939863;28;95675;-71
2022/05/06 10:46:33;;;;;;;4.00;3.58;;;22.80;60.80;;;;;;4959100;28;92660;-72
2022/05/06 10:49:34;;;;;;;3.08;2.88;;;22.80;61.50;;;;;;4957977;28;92424;-71
2022/05/06 10:52:16;;;;;;;3.45;2.90;;;22.90;60.40;;;;;;4957733;28;92496;-71
2022/05/06 10:54:47;;;;;;;3.70;3.50;;;23.00;60.90;;;;;;4924160;28;95180;-71
2022/05/06 10:57:19;;;;;;;3.13;2.92;;;23.00;60.30;;;;;;4956057;28;93169;-71
2022/05/06 10:59:53;;;;;;;4.00;3.70;;;23.10;59.60;;;;;;4938560;28;92965;-71
2022/05/06 11:02:42;;;;;;;3.50;3.20;;;23.20;59.90;;;;;;4951195;28;94823;-71
2022/05/06 11:05:14;;;;;;;3.03;2.85;;;23.20;60.20;;;;;;4956888;28;92464;-71
2022/05/06 11:07:43;;;;;;;;;;;23.30;59.30;;;;;;4956650;28;94033;-71
2022/05/06 11:10:16;;;;;;;2.42;2.30;;;23.00;59.30;;;;;;4958680;28;92423;-72
2022/05/06 11:12:48;;;;;;;3.38;3.15;;;23.10;59.50;;;;;;4957032;28;92980;-71
2022/05/06 11:15:23;;;;;;;2.42;2.33;;;23.20;59.10;;;;;;4957278;28;93259;-71
2022/05/06 11:17:54;;;;;;;2.13;1.90;;;23.30;58.00;;;;;;4939263;28;95508;-71
2022/05/06 11:20:26;;;;;;;3.72;2.85;;;23.30;58.20;;;;;;4957404;28;92091;-71
2022/05/06 11:23:09;;;;;;;3.13;2.88;;;23.30;57.10;;;;;;4957352;28;92442;-71
2022/05/06 11:25:44;;;;;;;3.45;3.25;;;23.30;58.20;;;;;;4956997;28;93036;-71
2022/05/06 11:28:17;;;;;;;4.88;2.75;;;23.20;58.60;;;;;;4938145;28;94933;-71
2022/05/06 11:30:49;;;;;;;1.92;1.80;;;23.40;58.40;;;;;;4955859;28;92525;-71
2022/05/06 11:33:34;;;;;;;2.50;2.40;;;23.40;57.50;;;;;;4955366;28;92503;-71
2022/05/06 11:36:03;;;;;;;3.67;3.47;;;23.40;56.10;;;;;;4955867;28;93386;-71
2022/05/06 11:38:35;;;;;;;2.45;2.33;;;23.40;57.40;;;;;;4956582;28;93303;-71
2022/05/06 11:41:06;;;;;;;4.20;3.90;;;23.50;57.40;;;;;;4957292;28;92805;-71
2022/05/06 11:43:33;;;;;;;3.70;3.08;;;23.50;57.50;;;;;;4968416;28;93388;-71
2022/05/06 11:48:56;;;;;;;3.42;3.22;;;23.30;57.40;;;;;;4884012;28;92510;-72
2022/05/06 11:51:27;;;;;;;4.05;3.75;;;23.40;58.10;;;;;;4934925;28;92450;-72
2022/05/06 11:53:54;;;;;;;2.80;2.50;;;23.40;58.00;;;;;;4955363;28;94847;-72
2022/05/06 11:56:26;;;;;;;2.60;2.40;;;23.20;58.40;;;;;;4956839;28;93172;-72
2022/05/06 11:58:56;;;;;;;6.18;2.90;;;23.20;58.40;;;;;;4938659;28;95468;-72
2022/05/06 12:01:31;;;;;;;4.85;4.50;;;23.20;58.90;;;;;;4955418;28;92859;-72
2022/05/06 12:04:09;;;;;;;3.25;3.05;;;23.50;59.30;;;;;;4955230;28;92474;-72
2022/05/06 12:06:44;;;;;;;5.03;4.72;;;23.60;59.00;;;;;;4956281;28;93403;-72
2022/05/06 12:09:22;;;;;;;5.78;5.32;;;23.90;58.70;;;;;;4956756;28;93258;-72
2022/05/06 12:12:10;;;;;;;4.13;3.83;;;24.10;57.50;;;;;;4956988;28;91705;-72
2022/05/06 12:14:38;;;;;;;3.50;3.20;;;24.20;56.90;;;;;;4955264;28;92915;-72
2022/05/06 12:17:11;;;;;;;7.65;4.32;;;24.20;56.60;;;;;;4955196;28;93397;-72
2022/05/06 12:19:44;;;;;;;5.07;4.78;;;24.30;55.70;;;;;;4937207;28;94872;-71
2022/05/06 12:22:22;;;;;;;6.43;2.50;;;24.10;54.30;;;;;;4938692;28;92474;-71
2022/05/06 12:24:51;;;;;;;3.13;2.92;;;24.10;53.00;;;;;;4945917;28;92397;-71
2022/05/06 12:27:28;;;;;;;4.05;3.75;;;23.80;54.50;;;;;;4938369;28;94945;-71
2022/05/06 12:29:57;;;;;;;3.30;3.00;;;23.90;55.50;;;;;;4955729;28;93102;-71
2022/05/06 12:32:27;;;;;;;4.32;3.95;;;23.90;55.20;;;;;;4938570;28;92484;-71
2022/05/06 12:35:21;;;;;;;2.70;2.50;;;24.00;54.20;;;;;;4954469;28;92535;-71
2022/05/06 12:37:54;;;;;;;4.78;4.22;;;24.20;53.40;;;;;;4919870;28;92537;-71
2022/05/06 12:40:28;;;;;;;3.33;3.00;;;24.20;53.80;;;;;;4954449;28;94910;-71
2022/05/06 12:43:05;;;;;;;2.67;2.47;;;24.20;52.30;;;;;;4955020;28;92564;-71
2022/05/06 12:45:32;;;;;;;4.72;4.28;;;24.30;52.60;;;;;;4954885;28;94893;-71
2022/05/06 12:50:44;;;;;;;2.97;2.88;;;24.40;50.00;;;;;;4938015;28;95622;-71
2022/05/06 12:53:12;;;;;;;3.28;2.00;;;24.50;50.50;;;;;;4955699;28;97103;-71
2022/05/06 12:55:41;;;;;;;2.58;1.90;;;24.60;49.70;;;;;;4955173;28;92452;-71
2022/05/06 12:58:10;;;;;;;2.35;2.25;;;24.70;48.70;;;;;;4963954;28;93273;-71
2022/05/06 13:00:38;;;;;;;2.05;1.83;;;24.50;46.70;;;;;;4951505;28;92922;-71
2022/05/06 13:03:05;;;;;;;3.95;2.72;;;24.40;47.80;;;;;;4956171;28;91721;-71
2022/05/06 13:05:32;;;;;;;4.50;1.65;;;24.40;48.10;;;;;;4938093;28;92552;-71
2022/05/06 13:08:05;;;;;;;2.63;2.13;;;24.50;48.30;;;;;;4955539;28;93406;-71
2022/05/06 13:10:32;;;;;;;2.08;1.67;;;24.60;48.10;;;;;;4921549;28;94980;-71
2022/05/06 13:12:59;;;;;;;2.58;1.83;;;24.60;47.80;;;;;;4938353;28;92509;-71
2022/05/06 13:15:26;;;;;;;1.92;1.83;;;24.70;46.00;;;;;;4955792;28;92916;-71
2022/05/06 13:17:53;;;;;;;1.73;1.50;;;24.70;46.90;;;;;;4954223;28;93147;-71
2022/05/06 13:20:20;;;;;;;1.52;1.38;;;24.70;47.60;;;;;;4937384;28;95598;-71
2022/05/06 13:22:47;;;;;;;4.70;1.92;;;24.80;48.10;;;;;;4955396;28;92490;-71
2022/05/06 13:25:14;;;;;;;3.15;2.45;;;24.90;48.60;;;;;;4922480;28;93054;-71
2022/05/06 13:27:41;;;;;;;2.17;1.70;;;25.00;48.20;;;;;;4938208;28;92445;-71
2022/05/06 13:30:09;;;;;;;3.17;2.17;;;25.10;48.10;;;;;;4954546;28;96729;-71
2022/05/06 13:32:35;;;;;;;1.50;1.40;;;25.00;48.90;;;;;;4938324;28;92462;-71
2022/05/06 13:35:03;;;;;;;2.00;1.35;;;24.90;49.70;;;;;;4953126;28;94907;-71
2022/05/06 13:37:30;;;;;;;2.97;2.67;;;24.90;50.30;;;;;;4955092;28;92484;-71
2022/05/06 13:39:56;;;;;;;2.13;1.70;;;24.90;50.30;;;;;;4937478;28;92896;-71
2022/05/06 13:42:24;;;;;;;2.50;1.52;;;24.80;50.40;;;;;;4955419;28;92356;-71
2022/05/06 13:44:51;;;;;;;2.20;1.75;;;24.60;50.30;;;;;;4955217;28;92451;-71
2022/05/06 13:47:18;;;;;;;2.80;2.60;;;24.50;51.00;;;;;;4937681;28;93179;-71
2022/05/06 13:49:44;;;;;;;1.80;1.40;;;24.60;51.50;;;;;;4954868;28;92992;-71